createdAt,value
2023-01-28T00:01:20.122Z,99859.44
2023-01-28T00:03:51.111Z,99872.63
2023-01-28T00:06:19.079Z,99863.91
2023-01-28T00:08:46.078Z,99860.47
2023-01-28T00:11:13.699Z,99864.00
2023-01-28T00:13:40.991Z,99863.13
2023-01-28T00:16:11.512Z,99870.13
2023-01-28T00:18:38.424Z,99869.22
2023-01-28T00:21:07.836Z,99871.81
2023-01-28T00:23:35.765Z,99878.03
2023-01-28T00:26:05.065Z,99865.00
2023-01-28T00:28:31.578Z,99876.31
2023-01-28T00:30:58.273Z,99864.97
2023-01-28T00:33:25.292Z,99867.56
2023-01-28T00:36:02.308Z,99861.59
2023-01-28T00:38:29.408Z,99862.41
2023-01-28T00:40:56.507Z,99860.59
2023-01-28T00:43:23.142Z,99861.56
2023-01-28T00:45:50.460Z,99863.25
2023-01-28T00:48:17.193Z,99856.19
2023-01-28T00:50:45.666Z,99859.69
2023-01-28T00:53:12.300Z,99852.78
2023-01-28T00:55:39.155Z,99857.91
2023-01-28T00:58:05.932Z,99859.69
2023-01-28T01:00:32.684Z,99850.22
2023-01-28T01:02:59.999Z,99851.09
2023-01-28T01:05:26.681Z,99863.25
2023-01-28T01:07:53.668Z,99864.16
2023-01-28T01:10:20.755Z,99861.41
2023-01-28T01:12:48.557Z,99860.63
2023-01-28T01:15:17.427Z,99855.50
2023-01-28T01:17:47.720Z,99858.00
2023-01-28T01:20:24.367Z,99848.50
2023-01-28T01:22:51.619Z,99851.13
2023-01-28T01:25:19.392Z,99852.00
2023-01-28T01:27:49.128Z,99853.84
2023-01-28T01:30:16.549Z,99862.53
2023-01-28T01:32:43.336Z,99861.56
2023-01-28T01:35:11.131Z,99873.00
2023-01-28T01:37:38.008Z,99864.16
2023-01-28T01:40:05.411Z,99869.50
2023-01-28T01:42:33.246Z,99864.16
2023-01-28T01:45:06.068Z,99860.72
2023-01-28T01:47:45.996Z,99865.06
2023-01-28T01:50:43.355Z,99870.34
2023-01-28T01:53:15.758Z,99873.81
2023-01-28T01:55:48.693Z,99872.09
2023-01-28T01:58:18.613Z,99859.09
2023-01-28T02:00:46.461Z,99867.78
2023-01-28T02:03:14.183Z,99866.09
2023-01-28T02:05:40.927Z,99873.03
2023-01-28T02:08:22.671Z,99872.91
2023-01-28T02:11:01.421Z,99883.50
2023-01-28T02:13:33.972Z,99880.78
2023-01-28T02:16:02.136Z,99889.53
2023-01-28T02:18:28.883Z,99889.53
2023-01-28T02:21:07.280Z,99892.13
2023-01-28T02:23:48.797Z,99895.81
2023-01-28T02:26:33.670Z,99894.94
2023-01-28T02:29:32.541Z,99892.31
2023-01-28T02:32:04.994Z,99896.53
2023-01-28T02:34:43.108Z,99901.03
2023-01-28T02:37:29.576Z,99898.41
2023-01-28T02:40:01.378Z,99907.13
2023-01-28T02:42:31.853Z,99898.34
2023-01-28T02:44:58.662Z,99898.41
2023-01-28T02:47:44.244Z,99901.88
2023-01-28T02:50:17.623Z,99904.47
2023-01-28T02:53:15.279Z,99908.84
2023-01-28T02:56:11.154Z,99916.78
2023-01-28T02:58:46.855Z,99914.25
2023-01-28T03:01:34.029Z,99914.19
2023-01-28T03:04:28.667Z,99924.56
2023-01-28T03:07:00.831Z,99919.44
2023-01-28T03:09:27.588Z,99928.22
2023-01-28T03:12:45.306Z,99925.53
2023-01-28T03:15:36.441Z,99931.78
2023-01-28T03:18:36.743Z,99933.44
2023-01-28T03:21:29.280Z,99940.38
2023-01-28T03:24:31.665Z,99943.88
2023-01-28T03:27:23.395Z,99940.53
2023-01-28T03:30:12.763Z,99944.00
2023-01-28T03:33:00.111Z,99943.22
2023-01-28T03:35:49.434Z,99940.69
2023-01-28T03:38:21.191Z,99939.03
2023-01-28T03:41:02.609Z,99933.91
2023-01-28T03:43:30.793Z,99942.53
2023-01-28T03:45:57.784Z,99944.97
2023-01-28T03:48:27.144Z,99944.97
2023-01-28T03:50:54.906Z,99945.19
2023-01-28T03:53:22.452Z,99946.06
2023-01-28T03:55:51.556Z,99940.75
2023-01-28T03:58:19.218Z,99952.16
2023-01-28T04:00:45.865Z,99952.22
2023-01-28T04:03:18.733Z,99948.66
2023-01-28T04:05:46.183Z,99953.00
2023-01-28T04:08:13.939Z,99945.25
2023-01-28T04:10:41.152Z,99944.25
2023-01-28T04:13:07.761Z,99946.72
2023-01-28T04:15:35.920Z,99953.72
2023-01-28T04:18:02.576Z,99948.53
2023-01-28T04:20:29.412Z,99952.00
2023-01-28T04:22:56.107Z,99948.53
2023-01-28T04:25:22.841Z,99951.13
2023-01-28T04:27:49.517Z,99949.47
2023-01-28T04:30:16.475Z,99948.56
2023-01-28T04:32:43.098Z,99954.66
2023-01-28T04:35:09.989Z,99950.28
2023-01-28T04:37:36.936Z,99959.88
2023-01-28T04:40:03.903Z,99961.75
2023-01-28T04:42:30.500Z,99964.22
2023-01-28T04:44:57.106Z,99966.03
2023-01-28T04:47:23.737Z,99967.84
2023-01-28T04:49:51.285Z,99963.38
2023-01-28T04:52:17.940Z,99955.63
2023-01-28T04:54:44.592Z,99954.66
2023-01-28T04:57:11.216Z,99965.94
2023-01-28T04:59:37.882Z,99958.16
2023-01-28T05:02:04.681Z,99955.63
2023-01-28T05:04:31.608Z,99959.09
2023-01-28T05:06:58.605Z,99955.63
2023-01-28T05:09:25.311Z,99960.84
2023-01-28T05:11:51.926Z,99969.59
2023-01-28T05:14:18.620Z,99974.03
2023-01-28T05:16:45.212Z,99971.56
2023-01-28T05:19:11.806Z,99981.13
2023-01-28T05:21:38.424Z,99981.03
2023-01-28T05:24:05.574Z,99972.38
2023-01-28T05:26:32.442Z,99979.44
2023-01-28T05:28:59.064Z,99979.41
2023-01-28T05:31:25.733Z,99977.53
2023-01-28T05:33:53.121Z,99984.53
2023-01-28T05:36:20.221Z,99985.41
2023-01-28T05:38:46.768Z,99982.75
2023-01-28T05:41:13.381Z,99980.25
2023-01-28T05:43:40.168Z,99987.06
2023-01-28T05:46:06.893Z,99986.22
2023-01-28T05:48:33.557Z,99988.00
2023-01-28T05:51:00.257Z,99991.69
2023-01-28T05:53:26.905Z,99984.56
2023-01-28T05:55:54.151Z,99986.31
2023-01-28T05:58:21.361Z,99984.66
2023-01-28T06:00:48.190Z,99980.25
2023-01-28T06:03:14.808Z,99987.22
2023-01-28T06:05:41.407Z,99988.94
2023-01-28T06:08:08.022Z,99994.38
2023-01-28T06:10:34.700Z,99992.47
2023-01-28T06:13:02.211Z,99996.78
2023-01-28T06:15:29.051Z,100003.88
2023-01-28T06:17:55.810Z,100013.41
2023-01-28T06:20:22.707Z,100010.81
2023-01-28T06:22:52.799Z,100009.13
2023-01-28T06:25:19.472Z,100018.78
2023-01-28T06:27:46.363Z,100015.31
2023-01-28T06:30:13.645Z,100018.91
2023-01-28T06:32:40.889Z,100018.94
2023-01-28T06:35:08.843Z,100031.84
2023-01-28T06:37:35.580Z,100026.66
2023-01-28T06:40:03.497Z,100020.63
2023-01-28T06:42:30.129Z,100025.03
2023-01-28T06:44:56.869Z,100018.19
2023-01-28T06:47:23.584Z,100022.50
2023-01-28T06:49:50.147Z,100019.97
2023-01-28T06:52:16.788Z,100023.38
2023-01-28T06:54:43.480Z,100032.91
2023-01-28T06:57:10.191Z,100035.66
2023-01-28T06:59:36.781Z,100033.09
2023-01-28T07:02:03.496Z,100037.41
2023-01-28T07:04:30.151Z,100034.81
2023-01-28T07:06:56.934Z,100037.41
2023-01-28T07:09:23.684Z,100036.53
2023-01-28T07:11:50.336Z,100037.41
2023-01-28T07:14:16.947Z,100039.94
2023-01-28T07:16:43.584Z,100044.25
2023-01-28T07:19:10.687Z,100047.72
2023-01-28T07:21:37.418Z,100051.31
2023-01-28T07:24:05.357Z,100051.34
2023-01-28T07:26:32.199Z,100049.53
2023-01-28T07:28:58.809Z,100051.34
2023-01-28T07:31:25.553Z,100060.00
2023-01-28T07:33:52.262Z,100062.66
2023-01-28T07:36:18.935Z,100061.75
2023-01-28T07:38:45.583Z,100060.00
2023-01-28T07:41:12.250Z,100062.84
2023-01-28T07:43:38.890Z,100061.84
2023-01-28T07:46:05.517Z,100061.75
2023-01-28T07:48:32.449Z,100068.03
2023-01-28T07:51:00.161Z,100066.22
2023-01-28T07:53:26.782Z,100069.56
2023-01-28T07:55:59.587Z,100075.72
2023-01-28T07:58:26.160Z,100072.44
2023-01-28T08:00:57.638Z,100064.56
2023-01-28T08:03:24.435Z,100061.91
2023-01-28T08:05:53.265Z,100076.66
2023-01-28T08:08:20.101Z,100062.75
2023-01-28T08:10:47.250Z,100069.69
2023-01-28T08:13:16.069Z,100069.66
2023-01-28T08:15:43.115Z,100073.13
2023-01-28T08:18:13.397Z,100077.34
2023-01-28T08:20:41.057Z,100073.78
2023-01-28T08:23:16.455Z,100074.75
2023-01-28T08:25:43.433Z,100075.56
2023-01-28T08:28:10.746Z,100078.97
2023-01-28T08:30:39.154Z,100077.25
2023-01-28T08:33:07.585Z,100073.03
2023-01-28T08:35:34.738Z,100079.91
2023-01-28T08:38:02.671Z,100072.13
2023-01-28T08:40:29.846Z,100083.19
2023-01-28T08:42:57.324Z,100077.94
2023-01-28T08:45:27.926Z,100079.91
2023-01-28T08:47:56.179Z,100079.88
2023-01-28T08:50:24.365Z,100084.13
2023-01-28T08:53:05.894Z,100087.53
2023-01-28T08:55:34.402Z,100092.63
2023-01-28T08:58:05.794Z,100092.63
2023-01-28T09:00:34.048Z,100097.78
2023-01-28T09:03:00.700Z,100089.13
2023-01-28T09:05:27.523Z,100097.91
2023-01-28T09:07:54.419Z,100092.59
2023-01-28T09:10:21.998Z,100104.75
2023-01-28T09:12:48.877Z,100095.22
2023-01-28T09:15:15.549Z,100102.97
2023-01-28T09:17:42.383Z,100107.38
2023-01-28T09:20:09.658Z,100110.84
2023-01-28T09:22:36.522Z,100106.34
2023-01-28T09:25:03.322Z,100109.78
2023-01-28T09:27:29.996Z,100104.59
2023-01-28T09:29:56.621Z,100114.19
2023-01-28T09:32:24.830Z,100114.06
2023-01-28T09:34:51.589Z,100114.03
2023-01-28T09:37:18.457Z,100111.28
2023-01-28T09:39:45.135Z,100112.88
2023-01-28T09:42:39.558Z,100116.38
2023-01-28T09:45:34.698Z,100128.69
2023-01-28T09:48:05.008Z,100130.50
2023-01-28T09:50:38.665Z,100132.16
2023-01-28T09:53:24.913Z,100132.97
2023-01-28T09:56:04.569Z,100131.00
2023-01-28T09:58:31.893Z,100148.34
2023-01-28T10:01:22.177Z,100132.63
2023-01-28T10:03:58.069Z,100138.75
2023-01-28T10:06:42.657Z,100144.88
2023-01-28T10:09:15.034Z,100154.41
2023-01-28T10:12:02.901Z,100149.31
2023-01-28T10:15:00.863Z,100153.56
2023-01-28T10:17:47.580Z,100151.88
2023-01-28T10:20:21.019Z,100148.25
2023-01-28T10:22:54.327Z,100137.81
2023-01-28T10:25:24.440Z,100140.41
2023-01-28T10:27:52.188Z,100147.50
2023-01-28T10:30:25.586Z,100142.31
2023-01-28T10:32:56.548Z,100137.03
2023-01-28T10:35:24.239Z,100133.53
2023-01-28T10:38:02.483Z,100141.31
2023-01-28T10:40:29.385Z,100144.78
2023-01-28T10:42:56.000Z,100140.44
2023-01-28T10:45:37.966Z,100143.84
2023-01-28T10:48:33.330Z,100146.53
2023-01-28T10:51:05.124Z,100134.38
2023-01-28T10:53:36.135Z,100143.97
2023-01-28T10:56:04.899Z,100146.50
2023-01-28T10:58:35.011Z,100150.97
2023-01-28T11:01:05.144Z,100143.97
2023-01-28T11:03:32.084Z,100135.22
2023-01-28T11:05:59.513Z,100146.63
2023-01-28T11:08:28.811Z,100151.00
2023-01-28T11:10:56.058Z,100147.78
2023-01-28T11:13:30.675Z,100143.66
2023-01-28T11:16:21.041Z,100146.19
2023-01-28T11:18:54.447Z,100151.41
2023-01-28T11:21:30.276Z,100149.81
2023-01-28T11:24:07.440Z,100142.81
2023-01-28T11:26:38.496Z,100139.13
2023-01-28T11:29:06.359Z,100128.69
2023-01-28T11:31:43.409Z,100137.31
2023-01-28T11:34:16.009Z,100131.88
2023-01-28T11:36:53.962Z,100140.63
2023-01-28T11:39:27.700Z,100130.50
2023-01-28T11:41:54.894Z,100138.94
2023-01-28T11:44:21.547Z,100138.94
2023-01-28T11:47:11.702Z,100125.06
2023-01-28T11:49:54.104Z,100139.84
2023-01-28T11:53:04.425Z,100129.38
2023-01-28T11:56:07.158Z,100124.91
2023-01-28T11:58:33.714Z,100129.28
2023-01-28T12:01:08.924Z,100129.28
2023-01-28T12:03:54.155Z,100121.47
2023-01-28T12:06:36.157Z,100123.16
2023-01-28T12:09:25.314Z,100127.59
2023-01-28T12:12:16.024Z,100125.81
2023-01-28T12:15:25.006Z,100119.69
2023-01-28T12:18:13.164Z,100116.25
2023-01-28T12:20:52.916Z,100116.25
2023-01-28T12:23:34.850Z,100110.97
2023-01-28T12:26:37.020Z,100110.97
2023-01-28T12:29:03.558Z,100107.56
2023-01-28T12:31:54.736Z,100112.84
2023-01-28T12:35:03.989Z,100106.91
2023-01-28T12:37:42.701Z,100111.25
2023-01-28T12:40:21.458Z,100105.91
2023-01-28T12:43:02.558Z,100098.84
2023-01-28T12:45:38.814Z,100102.28
2023-01-28T12:48:34.551Z,100110.84
2023-01-28T12:51:08.410Z,100110.00
2023-01-28T12:53:47.313Z,100110.88
2023-01-28T12:56:42.956Z,100112.69
2023-01-28T12:59:20.207Z,100117.13
2023-01-28T13:02:06.830Z,100113.59
2023-01-28T13:04:42.681Z,100117.81
2023-01-28T13:07:15.797Z,100120.25
2023-01-28T13:09:55.034Z,100121.19
2023-01-28T13:12:23.118Z,100133.28
2023-01-28T13:14:52.668Z,100124.81
2023-01-28T13:17:32.308Z,100122.41
2023-01-28T13:20:00.294Z,100121.66
2023-01-28T13:22:35.330Z,100124.22
2023-01-28T13:25:23.579Z,100133.72
2023-01-28T13:27:58.632Z,100126.66
2023-01-28T13:30:31.321Z,100122.31
2023-01-28T13:33:03.983Z,100132.00
2023-01-28T13:35:39.771Z,100126.94
2023-01-28T13:38:21.212Z,100124.28
2023-01-28T13:41:06.606Z,100116.31
2023-01-28T13:43:33.173Z,100112.84
2023-01-28T13:46:03.032Z,100123.94
2023-01-28T13:48:32.745Z,100128.34
2023-01-28T13:51:01.242Z,100117.69
2023-01-28T13:53:37.485Z,100116.72
2023-01-28T13:56:10.262Z,100122.63
2023-01-28T13:58:57.084Z,100126.19
2023-01-28T14:01:34.878Z,100118.38
2023-01-28T14:04:36.495Z,100123.50
2023-01-28T14:07:12.550Z,100116.47
2023-01-28T14:10:03.370Z,100119.06
2023-01-28T14:12:40.815Z,100120.19
2023-01-28T14:15:40.845Z,100114.97
2023-01-28T14:18:25.472Z,100116.84
2023-01-28T14:20:54.572Z,100113.34
2023-01-28T14:23:23.070Z,100115.03
2023-01-28T14:26:11.507Z,100103.75
2023-01-28T14:28:48.686Z,100103.19
2023-01-28T14:31:29.136Z,100105.47
2023-01-28T14:34:05.127Z,100102.22
2023-01-28T14:36:32.169Z,100112.56
2023-01-28T14:38:58.867Z,100110.69
2023-01-28T14:41:27.996Z,100105.47
2023-01-28T14:43:56.156Z,100099.31
2023-01-28T14:46:29.702Z,100103.69
2023-01-28T14:49:34.101Z,100088.91
2023-01-28T14:52:19.134Z,100094.97
2023-01-28T14:55:25.691Z,100087.34
2023-01-28T14:57:59.952Z,100083.25
2023-01-28T15:00:29.900Z,100077.78
2023-01-28T15:02:56.847Z,100063.66
2023-01-28T15:05:26.557Z,100064.25
2023-01-28T15:07:53.708Z,100058.25
2023-01-28T15:10:29.994Z,100058.03
2023-01-28T15:13:01.285Z,100058.03
2023-01-28T15:15:34.999Z,100064.06
2023-01-28T15:18:12.526Z,100073.78
2023-01-28T15:20:39.439Z,100079.69
2023-01-28T15:23:07.776Z,100092.03
2023-01-28T15:25:34.527Z,100096.47
2023-01-28T15:28:02.301Z,100080.97
2023-01-28T15:30:31.650Z,100076.69
2023-01-28T15:32:58.830Z,100084.53
2023-01-28T15:35:25.938Z,100088.97
2023-01-28T15:37:52.654Z,100086.31
2023-01-28T15:40:21.437Z,100092.50
2023-01-28T15:42:49.373Z,100087.28
2023-01-28T15:45:22.336Z,100102.13
2023-01-28T15:47:50.496Z,100116.03
2023-01-28T15:50:26.073Z,100113.59
2023-01-28T15:52:55.540Z,100113.78
2023-01-28T15:55:43.794Z,100115.66
2023-01-28T15:58:33.526Z,100121.03
2023-01-28T16:01:13.566Z,100128.78
2023-01-28T16:03:43.550Z,100115.81
2023-01-28T16:06:20.311Z,100103.66
2023-01-28T16:08:58.904Z,100120.91
2023-01-28T16:11:32.627Z,100119.19
2023-01-28T16:14:00.565Z,100128.19
2023-01-28T16:16:31.192Z,100128.19
2023-01-28T16:18:58.539Z,100122.09
2023-01-28T16:21:30.702Z,100124.47
2023-01-28T16:24:26.473Z,100134.78
2023-01-28T16:27:04.476Z,100134.91
2023-01-28T16:29:31.629Z,100148.94
2023-01-28T16:32:00.005Z,100137.63
2023-01-28T16:34:30.300Z,100135.03
2023-01-28T16:36:59.160Z,100143.72
2023-01-28T16:39:25.788Z,100144.56
2023-01-28T16:41:53.650Z,100136.63
2023-01-28T16:44:20.318Z,100141.75
2023-01-28T16:46:47.059Z,100139.22
2023-01-28T16:49:13.755Z,100143.56
2023-01-28T16:51:44.012Z,100138.41
2023-01-28T16:54:16.618Z,100153.25
2023-01-28T16:56:46.010Z,100143.72
2023-01-28T16:59:15.399Z,100141.13
2023-01-28T17:01:43.739Z,100129.84
2023-01-28T17:04:12.346Z,100137.72
2023-01-28T17:06:44.612Z,100135.13
2023-01-28T17:09:13.992Z,100138.53
2023-01-28T17:11:41.119Z,100145.44
2023-01-28T17:14:08.878Z,100136.75
2023-01-28T17:16:35.768Z,100132.41
2023-01-28T17:19:02.672Z,100139.44
2023-01-28T17:21:29.298Z,100148.13
2023-01-28T17:23:58.107Z,100150.78
2023-01-28T17:26:25.034Z,100144.91
2023-01-28T17:28:53.440Z,100141.41
2023-01-28T17:31:21.107Z,100144.03
2023-01-28T17:33:47.929Z,100151.88
2023-01-28T17:36:14.568Z,100152.84
2023-01-28T17:38:45.421Z,100164.94
2023-01-28T17:41:13.724Z,100165.84
2023-01-28T17:43:40.805Z,100178.94
2023-01-28T17:46:12.440Z,100181.53
2023-01-28T17:48:40.062Z,100177.19
2023-01-28T17:51:07.154Z,100191.88
2023-01-28T17:53:33.824Z,100185.03
2023-01-28T17:56:00.461Z,100185.03
2023-01-28T17:58:27.116Z,100194.47
2023-01-28T18:00:53.797Z,100188.38
2023-01-28T18:03:20.430Z,100195.31
2023-01-28T18:05:58.147Z,100199.59
2023-01-28T18:08:24.841Z,100199.56
2023-01-28T18:10:51.505Z,100200.44
2023-01-28T18:13:18.208Z,100211.72
2023-01-28T18:15:44.843Z,100207.34
2023-01-28T18:18:11.473Z,100198.69
2023-01-28T18:20:38.117Z,100198.66
2023-01-28T18:23:04.820Z,100210.06
2023-01-28T18:25:31.448Z,100223.94
2023-01-28T18:27:58.065Z,100227.31
2023-01-28T18:30:24.684Z,100229.84
2023-01-28T18:32:51.423Z,100223.75
2023-01-28T18:35:18.412Z,100215.91
2023-01-28T18:37:45.283Z,100238.56
2023-01-28T18:40:12.388Z,100245.41
2023-01-28T18:42:39.253Z,100234.88
2023-01-28T18:45:06.561Z,100235.69
2023-01-28T18:47:33.134Z,100228.75
2023-01-28T18:49:59.905Z,100221.91
2023-01-28T18:52:26.681Z,100217.59
2023-01-28T18:54:53.926Z,100222.91
2023-01-28T18:57:20.578Z,100225.44
2023-01-28T18:59:47.565Z,100222.72
2023-01-28T19:02:15.709Z,100233.06
2023-01-28T19:04:42.983Z,100217.44
2023-01-28T19:07:11.794Z,100216.69
2023-01-28T19:09:38.741Z,100217.56
2023-01-28T19:12:05.579Z,100222.00
2023-01-28T19:14:32.516Z,100228.88
2023-01-28T19:16:59.286Z,100230.53
2023-01-28T19:19:26.117Z,100240.09
2023-01-28T19:21:53.517Z,100246.28
2023-01-28T19:24:20.543Z,100224.69
2023-01-28T19:26:47.180Z,100223.84
2023-01-28T19:29:16.319Z,100213.53
2023-01-28T19:31:44.399Z,100219.72
2023-01-28T19:34:11.459Z,100214.53
2023-01-28T19:36:38.128Z,100224.06
2023-01-28T19:39:07.864Z,100232.81
2023-01-28T19:41:35.987Z,100227.63
2023-01-28T19:44:03.415Z,100237.16
2023-01-28T19:46:30.360Z,100231.09
2023-01-28T19:48:57.260Z,100230.22
2023-01-28T19:51:24.040Z,100228.50
2023-01-28T19:53:53.155Z,100231.28
2023-01-28T19:56:21.618Z,100221.84
2023-01-28T19:58:48.445Z,100213.94
2023-01-28T20:01:18.081Z,100224.38
2023-01-28T20:03:45.698Z,100224.47
2023-01-28T20:06:14.773Z,100217.59
2023-01-28T20:08:41.892Z,100214.97
2023-01-28T20:11:13.963Z,100227.16
2023-01-28T20:13:42.760Z,100228.00
2023-01-28T20:16:16.696Z,100236.69
2023-01-28T20:18:43.477Z,100235.81
2023-01-28T20:21:10.059Z,100236.69
2023-01-28T20:23:36.752Z,100240.16
2023-01-28T20:26:03.440Z,100238.50
2023-01-28T20:28:30.231Z,100251.44
2023-01-28T20:30:56.971Z,100260.19
2023-01-28T20:33:23.703Z,100262.78
2023-01-28T20:35:50.287Z,100258.44
2023-01-28T20:38:16.936Z,100256.75
2023-01-28T20:40:43.974Z,100244.69
2023-01-28T20:43:10.599Z,100244.69
2023-01-28T20:45:37.465Z,100242.09
2023-01-28T20:48:04.264Z,100252.50
2023-01-28T20:50:30.936Z,100249.09
2023-01-28T20:52:57.899Z,100242.19
2023-01-28T20:55:24.607Z,100243.91
2023-01-28T20:57:52.670Z,100244.78
2023-01-28T21:00:19.965Z,100244.78
2023-01-28T21:02:46.644Z,100242.25
2023-01-28T21:05:13.765Z,100237.06
2023-01-28T21:07:40.677Z,100234.38
2023-01-28T21:10:07.700Z,100237.88
2023-01-28T21:12:34.743Z,100241.31
2023-01-28T21:15:01.497Z,100240.44
2023-01-28T21:17:28.143Z,100237.00
2023-01-28T21:19:54.792Z,100231.81
2023-01-28T21:22:21.526Z,100227.47
2023-01-28T21:24:51.184Z,100217.03
2023-01-28T21:27:17.878Z,100221.31
2023-01-28T21:29:44.505Z,100221.38
2023-01-28T21:32:11.241Z,100228.28
2023-01-28T21:34:38.186Z,100230.91
2023-01-28T21:37:04.829Z,100226.50
2023-01-28T21:39:31.533Z,100216.94
2023-01-28T21:41:58.201Z,100216.94
2023-01-28T21:44:24.814Z,100215.25
2023-01-28T21:46:51.489Z,100226.50
2023-01-28T21:49:18.149Z,100228.22
2023-01-28T21:51:47.338Z,100229.94
2023-01-28T21:54:17.052Z,100223.09
2023-01-28T21:56:45.343Z,100221.38
2023-01-28T21:59:27.974Z,100207.50
2023-01-28T22:02:02.687Z,100213.69
2023-01-28T22:04:40.701Z,100205.88
2023-01-28T22:07:11.405Z,100219.72
2023-01-28T22:09:38.565Z,100221.56
2023-01-28T22:12:09.660Z,100229.38
2023-01-28T22:14:38.295Z,100221.63
2023-01-28T22:17:07.468Z,100213.84
2023-01-28T22:19:34.133Z,100224.25
2023-01-28T22:22:01.019Z,100225.13
2023-01-28T22:24:28.140Z,100222.50
2023-01-28T22:26:54.810Z,100215.50
2023-01-28T22:29:23.328Z,100221.63
2023-01-28T22:31:52.209Z,100219.03
2023-01-28T22:34:20.645Z,100218.13
2023-01-28T22:36:47.750Z,100225.03
2023-01-28T22:39:16.043Z,100227.59
2023-01-28T22:41:44.100Z,100228.66
2023-01-28T22:44:10.785Z,100232.09
2023-01-28T22:46:37.940Z,100225.97
2023-01-28T22:49:05.388Z,100230.25
2023-01-28T22:51:35.197Z,100226.88
2023-01-28T22:54:02.305Z,100235.53
2023-01-28T22:56:29.821Z,100231.19
2023-01-28T22:58:58.842Z,100219.94
2023-01-28T23:01:25.993Z,100223.41
2023-01-28T23:03:53.284Z,100227.78
2023-01-28T23:06:22.228Z,100219.94
2023-01-28T23:08:49.483Z,100216.44
2023-01-28T23:11:28.204Z,100212.97
2023-01-28T23:14:16.563Z,100221.63
2023-01-28T23:17:02.428Z,100228.56
2023-01-28T23:19:47.632Z,100220.78
2023-01-28T23:22:38.909Z,100219.13
2023-01-28T23:25:05.787Z,100220.84
2023-01-28T23:27:32.468Z,100215.59
2023-01-28T23:29:59.046Z,100218.25
2023-01-28T23:32:26.332Z,100220.84
2023-01-28T23:34:52.981Z,100216.72
2023-01-28T23:37:19.730Z,100211.56
2023-01-28T23:39:46.314Z,100220.19
2023-01-28T23:42:19.081Z,100216.78
2023-01-28T23:44:45.828Z,100220.25
2023-01-28T23:47:13.041Z,100223.72
2023-01-28T23:49:39.916Z,100220.25
2023-01-28T23:52:07.776Z,100217.72
2023-01-28T23:54:35.089Z,100226.44
2023-01-28T23:57:02.539Z,100213.56
2023-01-28T23:59:29.327Z,100224.03
